KPHX/PHX METAR and TAF weather

Enter ICAO airport designator
Station Type Date Time Source
KPHX METAR 2019/08/22 04:51 UTC NOAA

KPHX 220451Z 23005KT 10SM CLR 37/M02 A2967 RMK AO2 SLP022 T03671017


Station Type Date Time Source
KPHX Decoded METAR 2019/08/22 04:51 UTC NOAA

Station name not available
Aug 22, 2019 - 12:51 AM EDT / 2019.08.22 0451 UTC
Wind: from the SW (230 degrees) at 6 MPH (5 KT):0
Visibility: 10 mile(s):0
Sky conditions: clear
Temperature: 98.1 F (36.7 C)
Dew Point: 28.9 F (-1.7 C)
Relative Humidity: 8%
Pressure (altimeter): 29.67 in. Hg (1004 hPa)
ob: KPHX 220451Z 23005KT 10SM CLR 37/M02 A2967 RMK AO2 SLP022 T03671017
cycle: 5

Station Type Date Time Source
KPHX TAF 2019/08/22 03:48 UTC NOAA

TAF
AMD KPHX 220246Z 2203/2306 26008KT P6SM SKC
FM221000 10006KT P6SM SKC
FM222100 26008KT P6SM FEW140

Example: see airport list